Time;durP1;ratioP1;P1;durP2;ratioP2;P2;SDS_P1;SDS_P2;PMS_P1;PMS_P2;Temp;Humidity;BMP_temperature;BMP_pressure;BME280_temperature;BME280_humidity;BME280_pressure;Samples;Min_cycle;Max_cycle;Signal;HPM_P1;HPM_P2
2022/11/25 00:01:05;;;;;;;5.97;3.38;;;;;;;6.16;80.20;99155.72;5026806;28;20042;-71
2022/11/25 00:03:34;;;;;;;5.20;3.53;;;;;;;6.16;80.33;99153.09;5025966;28;20038;-72
2022/11/25 00:06:08;;;;;;;3.97;3.30;;;;;;;6.14;79.98;99157.56;5027037;28;20054;-72
2022/11/25 00:08:35;;;;;;;5.53;4.07;;;;;;;6.14;80.31;99161.97;5027017;28;20046;-72
2022/11/25 00:11:02;;;;;;;4.97;3.47;;;;;;;6.13;80.25;99160.25;5026893;28;20056;-71
2022/11/25 00:13:29;;;;;;;5.57;3.63;;;;;;;6.14;80.24;99157.56;5026617;28;20045;-72
2022/11/25 00:15:55;;;;;;;4.45;2.90;;;;;;;6.15;80.20;99159.28;5026808;28;20042;-71
2022/11/25 00:18:22;;;;;;;3.85;2.95;;;;;;;5.97;80.12;99129.31;5026782;28;20289;-71
2022/11/25 00:20:50;;;;;;;4.30;3.25;;;;;;;6.14;80.17;99162.81;5026477;28;20056;-72
2022/11/25 00:23:17;;;;;;;6.05;3.42;;;;;;;6.14;80.35;99156.72;5026768;28;20293;-72
2022/11/25 00:25:44;;;;;;;4.82;3.13;;;;;;;6.13;80.31;99165.53;5025725;28;20301;-71
2022/11/25 00:28:11;;;;;;;4.22;3.40;;;;;;;6.12;80.24;99164.66;5026629;28;20060;-71
2022/11/25 00:30:38;;;;;;;5.10;3.75;;;;;;;6.12;80.29;99167.28;5026361;28;20048;-71
2022/11/25 00:33:04;;;;;;;4.18;3.40;;;;;;;6.12;80.22;99169.94;5026073;28;20061;-71
2022/11/25 00:35:31;;;;;;;4.00;3.22;;;;;;;5.46;80.33;99066.47;5025931;28;20050;-71
2022/11/25 00:37:59;;;;;;;4.15;3.00;;;;;;;6.07;80.26;99167.47;5026176;28;20052;-71
2022/11/25 00:40:26;;;;;;;6.47;3.95;;;;;;;6.07;80.36;99169.25;5026308;28;20034;-71
2022/11/25 00:45:37;;;;;;;6.03;3.72;;;;;;;6.06;80.47;99180.69;5025196;28;20128;-72
2022/11/25 00:48:04;;;;;;;7.32;3.88;;;;;;;6.07;80.45;99183.25;5025193;28;20056;-71
2022/11/25 00:50:31;;;;;;;11.65;4.35;;;;;;;6.07;80.41;99182.41;5025811;28;20034;-72
2022/11/25 00:52:59;;;;;;;5.85;3.22;;;;;;;6.07;80.45;99178.00;5026518;28;20054;-72
2022/11/25 00:56:11;;;;;;;5.22;3.50;;;;;;;5.89;80.54;99156.81;5026176;28;20087;-71
2022/11/25 00:58:13;;;;;;;5.25;3.80;;;;;;;6.06;80.40;99181.56;5025684;28;20077;-72
2022/11/25 01:00:40;;;;;;;4.25;3.22;;;;;;;6.08;80.54;99189.38;5025662;28;20038;-72
2022/11/25 01:03:06;;;;;;;6.05;3.88;;;;;;;6.07;80.49;99183.25;5025770;28;20046;-72
2022/11/25 01:05:33;;;;;;;4.47;3.05;;;;;;;6.08;80.38;99184.13;5024947;28;20052;-72
2022/11/25 01:08:01;;;;;;;5.45;3.38;;;;;;;6.08;80.32;99186.75;5025890;28;20085;-71
2022/11/25 01:10:28;;;;;;;4.60;3.50;;;;;;;6.08;80.38;99194.66;5026307;28;20105;-72
2022/11/25 01:12:55;;;;;;;4.65;3.83;;;;;;;6.08;80.31;99190.25;5025703;28;20092;-71
2022/11/25 01:15:21;;;;;;;5.00;3.55;;;;;;;6.07;80.21;99187.66;5024877;28;20042;-72
2022/11/25 01:17:48;;;;;;;7.53;3.83;;;;;;;5.71;80.22;99140.00;5025898;28;20080;-72
2022/11/25 01:20:16;;;;;;;5.38;3.60;;;;;;;3.88;79.88;98829.16;5025522;28;20045;-71
2022/11/25 01:22:42;;;;;;;4.47;3.28;;;;;;;6.11;80.05;99202.41;5024741;28;20041;-72
2022/11/25 01:25:10;;;;;;;5.40;3.28;;;;;;;6.12;79.81;99201.50;5025443;28;20042;-71
2022/11/25 01:27:41;;;;;;;4.45;3.28;;;;;;;6.13;79.71;99197.09;5025457;28;20046;-72
2022/11/25 01:30:09;;;;;;;4.55;3.63;;;;;;;6.13;79.69;99195.31;5025809;28;20037;-72
2022/11/25 01:32:36;;;;;;;4.30;3.08;;;;;;;6.13;79.54;99197.94;5024460;28;20053;-71
2022/11/25 01:35:04;;;;;;;4.78;3.45;;;;;;;6.14;79.53;99197.03;5025443;28;20045;-72
2022/11/25 01:37:31;;;;;;;4.25;3.40;;;;;;;6.14;79.47;99190.91;5025697;28;20189;-71
2022/11/25 01:39:58;;;;;;;4.10;3.30;;;;;;;6.14;79.32;99196.19;5029394;28;20296;-71
2022/11/25 01:42:30;;;;;;;4.47;3.88;;;;;;;6.14;79.14;99188.28;5029753;28;20096;-71
2022/11/25 01:45:32;;;;;;;5.95;3.72;;;;;;;6.14;78.83;99191.78;5029496;28;20093;-71
2022/11/25 01:48:02;;;;;;;4.28;3.17;;;;;;;3.61;79.11;98772.50;5029791;28;20041;-71
2022/11/25 01:50:32;;;;;;;7.22;4.55;;;;;;;6.08;79.43;99194.66;5029644;28;20097;-72
2022/11/25 01:52:59;;;;;;;6.05;3.45;;;;;;;6.08;79.35;99195.50;5029986;28;20057;-72
2022/11/25 01:55:30;;;;;;;5.55;3.88;;;;;;;6.06;79.44;99199.09;5029310;28;20046;-72
2022/11/25 01:58:03;;;;;;;4.00;3.33;;;;;;;6.03;79.32;99194.81;5029305;28;20092;-72
2022/11/25 02:00:30;;;;;;;4.85;3.42;;;;;;;6.01;79.39;99203.69;5029220;28;20052;-72
2022/11/25 02:02:59;;;;;;;4.30;3.58;;;;;;;6.00;79.30;99207.25;5029232;28;20100;-73
2022/11/25 02:05:38;;;;;;;5.00;3.40;;;;;;;6.00;79.36;99207.25;5029186;28;20068;-72
2022/11/25 02:08:07;;;;;;;6.35;3.95;;;;;;;5.93;79.29;99206.63;5029117;28;20315;-72
2022/11/25 02:10:35;;;;;;;3.80;3.13;;;;;;;5.96;79.48;99200.38;5029367;28;20042;-72
2022/11/25 02:13:03;;;;;;;4.55;3.25;;;;;;;5.94;79.35;99210.09;5029399;28;20053;-72
2022/11/25 02:15:34;;;;;;;4.90;3.55;;;;;;;5.67;79.33;99160.28;5028740;28;20084;-72
2022/11/25 02:18:01;;;;;;;4.05;2.95;;;;;;;5.91;79.28;99208.44;5028927;28;20234;-72
2022/11/25 02:20:28;;;;;;;4.68;3.20;;;;;;;5.92;79.22;99206.69;5029146;28;20042;-72
2022/11/25 02:23:03;;;;;;;4.75;3.50;;;;;;;5.90;78.94;99217.25;5029181;28;20046;-72
2022/11/25 02:25:33;;;;;;;6.68;3.45;;;;;;;5.88;79.16;99210.34;5028290;28;20034;-72
2022/11/25 02:28:05;;;;;;;5.25;3.78;;;;;;;5.88;79.05;99212.97;5029382;28;20248;-72
2022/11/25 02:30:32;;;;;;;4.72;3.13;;;;;;;5.87;79.07;99211.25;5029238;28;20088;-72
2022/11/25 02:33:00;;;;;;;3.65;2.80;;;;;;;5.86;78.96;99213.03;5028866;28;20046;-72
2022/11/25 02:35:30;;;;;;;7.85;4.10;;;;;;;5.86;78.90;99199.88;5028592;28;20290;-72
2022/11/25 02:38:01;;;;;;;3.95;2.83;;;;;;;5.01;78.65;99076.97;5029095;28;20213;-71
2022/11/25 02:40:28;;;;;;;4.30;2.97;;;;;;;5.65;78.76;99169.16;5028518;28;20053;-72
2022/11/25 02:42:59;;;;;;;3.85;2.85;;;;;;;4.55;78.61;98997.22;5028995;28;20116;-72
2022/11/25 02:45:33;;;;;;;4.75;3.50;;;;;;;4.30;78.40;98947.41;5028999;28;20042;-72
2022/11/25 02:48:00;;;;;;;4.55;2.80;;;;;;;5.79;78.76;99214.19;5028799;28;20240;-72
2022/11/25 02:50:27;;;;;;;4.35;3.20;;;;;;;4.78;78.67;99060.25;5028191;28;20045;-73
2022/11/25 02:52:54;;;;;;;5.32;3.10;;;;;;;5.77;78.75;99210.75;5028736;28;20100;-72
2022/11/25 02:55:20;;;;;;;4.28;3.15;;;;;;;5.76;78.60;99214.31;5028515;28;20171;-72
2022/11/25 02:57:47;;;;;;;3.65;2.78;;;;;;;5.57;78.70;99184.34;5028734;28;20092;-72
2022/11/25 03:00:18;;;;;;;3.83;3.15;;;;;;;5.66;78.40;99205.91;5028580;28;20042;-73
2022/11/25 03:02:44;;;;;;;3.40;2.60;;;;;;;5.74;78.55;99216.13;5028127;28;20037;-73
2022/11/25 03:05:11;;;;;;;3.75;2.85;;;;;;;5.47;78.47;99173.34;5028378;28;20069;-72
2022/11/25 03:07:38;;;;;;;4.05;2.85;;;;;;;5.73;78.39;99227.56;5028033;28;20129;-73
2022/11/25 03:10:06;;;;;;;4.25;3.10;;;;;;;5.72;78.42;99223.22;5027543;28;20186;-72
2022/11/25 03:12:32;;;;;;;7.10;4.60;;;;;;;5.72;78.46;99223.22;5027425;28;20038;-72
2022/11/25 03:14:59;;;;;;;5.22;3.10;;;;;;;5.73;78.50;99232.81;5028413;28;20058;-72
2022/11/25 03:17:28;;;;;;;4.90;3.00;;;;;;;5.55;78.40;99202.81;5027848;28;20344;-72
2022/11/25 03:19:54;;;;;;;4.00;2.88;;;;;;;5.71;78.56;99229.41;5027974;28;20289;-73
2022/11/25 03:22:21;;;;;;;4.68;2.92;;;;;;;4.71;78.27;99085.00;5027786;28;20057;-72
2022/11/25 03:24:48;;;;;;;4.38;3.00;;;;;;;5.69;78.57;99234.72;5028291;28;20174;-72
2022/11/25 03:27:14;;;;;;;4.80;2.85;;;;;;;5.68;78.32;99237.41;5027408;28;20096;-72
2022/11/25 03:29:41;;;;;;;7.80;3.53;;;;;;;5.69;78.61;99234.72;5027607;28;20045;-72
2022/11/25 03:32:08;;;;;;;5.47;3.15;;;;;;;5.68;78.37;99232.13;5028141;28;20042;-72
2022/11/25 03:34:36;;;;;;;4.47;3.05;;;;;;;5.67;78.54;99236.53;5028129;28;20053;-72
2022/11/25 03:37:03;;;;;;;3.90;3.03;;;;;;;5.67;78.55;99238.31;5028026;28;20229;-72
2022/11/25 03:39:29;;;;;;;3.50;2.60;;;;;;;5.65;78.40;99242.78;5027561;28;20045;-72
2022/11/25 03:41:56;;;;;;;4.55;2.65;;;;;;;5.65;78.45;99246.25;5027569;28;20088;-72
2022/11/25 03:44:23;;;;;;;4.13;2.60;;;;;;;5.65;78.32;99248.03;5027921;28;20060;-72
2022/11/25 03:46:50;;;;;;;4.13;3.00;;;;;;;5.64;78.34;99247.16;5027540;28;20046;-72
2022/11/25 03:49:16;;;;;;;3.15;2.60;;;;;;;5.64;78.50;99256.81;5027750;28;20046;-72
2022/11/25 03:51:44;;;;;;;4.40;2.65;;;;;;;5.44;78.49;99220.75;5027022;28;20060;-72
2022/11/25 03:54:11;;;;;;;3.75;2.47;;;;;;;5.65;78.29;99255.91;5026166;28;20064;-72
2022/11/25 03:56:38;;;;;;;4.90;2.90;;;;;;;4.74;78.19;99105.91;5026958;28;20041;-73
2022/11/25 03:59:05;;;;;;;6.00;3.08;;;;;;;4.59;78.19;99080.19;5027186;28;20056;-72
2022/11/25 04:01:31;;;;;;;4.05;2.70;;;;;;;5.67;78.30;99261.97;5025782;28;20167;-72
2022/11/25 04:03:58;;;;;;;3.50;2.88;;;;;;;2.56;77.96;98740.34;5025996;28;20348;-72
2022/11/25 04:06:25;;;;;;;5.30;3.70;;;;;;;5.65;78.20;99269.91;5026758;28;20046;-72
2022/11/25 04:08:53;;;;;;;6.97;4.47;;;;;;;5.67;78.44;99264.59;5027035;28;20128;-71
2022/11/25 04:11:20;;;;;;;4.60;3.17;;;;;;;5.68;78.25;99271.56;5026753;28;20038;-71
2022/11/25 04:13:45;;;;;;;4.60;2.45;;;;;;;4.99;78.27;99155.81;5026627;28;20053;-72
2022/11/25 04:16:22;;;;;;;4.90;2.97;;;;;;;5.27;77.88;99208.22;5025805;28;20050;-71
2022/11/25 04:18:49;;;;;;;5.85;2.70;;;;;;;5.48;78.03;99243.38;5026855;28;20042;-71
2022/11/25 04:21:16;;;;;;;6.22;3.13;;;;;;;5.65;78.17;99285.69;5026443;28;20041;-71
2022/11/25 04:23:42;;;;;;;4.10;3.03;;;;;;;5.65;78.19;99283.06;5025748;28;20037;-71
2022/11/25 04:26:10;;;;;;;4.00;2.70;;;;;;;5.65;78.08;99283.06;5025702;28;20052;-71
2022/11/25 04:28:37;;;;;;;5.10;2.90;;;;;;;5.64;78.27;99289.25;5025970;28;20190;-71
2022/11/25 04:31:06;;;;;;;4.82;3.00;;;;;;;5.62;78.17;99287.56;5025794;28;20076;-72
2022/11/25 04:33:33;;;;;;;4.47;2.70;;;;;;;5.63;78.25;99284.03;5026781;28;20041;-71
2022/11/25 04:36:00;;;;;;;4.55;2.80;;;;;;;5.61;78.07;99281.47;5026428;28;20053;-71
2022/11/25 04:38:26;;;;;;;6.50;2.92;;;;;;;5.61;77.98;99280.59;5025552;28;20245;-71
2022/11/25 04:40:53;;;;;;;3.92;2.67;;;;;;;5.59;78.10;99285.06;5026504;28;20046;-71
2022/11/25 04:43:21;;;;;;;6.40;3.90;;;;;;;5.38;78.03;99258.63;5025453;28;20050;-71
2022/11/25 04:45:48;;;;;;;5.22;3.88;;;;;;;5.56;77.85;99291.28;5025443;28;20078;-71
2022/11/25 04:48:15;;;;;;;4.93;2.90;;;;;;;5.55;77.99;99291.34;5026204;28;20037;-71
2022/11/25 04:50:42;;;;;;;4.68;2.70;;;;;;;5.54;78.04;99277.34;5025870;28;20074;-72
2022/11/25 04:53:09;;;;;;;3.63;2.50;;;;;;;5.54;78.05;99292.25;5026689;28;20064;-71
2022/11/25 04:55:35;;;;;;;3.45;2.75;;;;;;;5.53;77.96;99290.53;5026323;28;20037;-71
2022/11/25 04:58:02;;;;;;;9.05;3.53;;;;;;;5.53;78.02;99296.66;5026102;28;20041;-71
2022/11/25 05:00:29;;;;;;;5.20;3.05;;;;;;;5.52;77.97;99307.22;5025916;28;20092;-72
2022/11/25 05:02:56;;;;;;;6.75;3.00;;;;;;;5.50;78.07;99307.28;5026023;28;20220;-71
2022/11/25 05:05:23;;;;;;;4.25;2.47;;;;;;;5.49;78.12;99312.59;5026383;28;20042;-71
2022/11/25 05:07:50;;;;;;;4.55;2.80;;;;;;;5.48;77.86;99300.34;5025933;28;20050;-71
2022/11/25 05:10:16;;;;;;;6.03;3.15;;;;;;;5.48;77.86;99311.72;5025868;28;20042;-71
2022/11/25 05:12:43;;;;;;;5.28;3.72;;;;;;;5.47;77.88;99304.75;5025302;28;20092;-71
2022/11/25 05:15:11;;;;;;;6.28;3.08;;;;;;;5.45;77.90;99304.81;5026288;28;20057;-71
2022/11/25 05:17:39;;;;;;;3.85;2.88;;;;;;;5.25;77.75;99269.63;5026057;28;20088;-72
2022/11/25 05:20:08;;;;;;;3.40;2.90;;;;;;;5.44;77.92;99308.34;5026262;28;20057;-71
2022/11/25 05:22:35;;;;;;;3.42;3.08;;;;;;;4.61;77.77;99174.63;5024785;28;20088;-72
2022/11/25 05:25:04;;;;;;;6.72;3.25;;;;;;;5.41;78.03;99311.09;5025731;28;20092;-71
2022/11/25 05:27:31;;;;;;;5.20;3.00;;;;;;;5.39;78.05;99317.31;5024813;28;20261;-71
2022/11/25 05:29:57;;;;;;;4.45;3.00;;;;;;;5.39;78.08;99312.91;5024734;28;20052;-72
2022/11/25 05:32:24;;;;;;;4.22;2.90;;;;;;;5.18;77.96;99274.25;5024685;28;20038;-71
2022/11/25 05:34:52;;;;;;;4.93;3.00;;;;;;;5.37;78.09;99309.47;5024696;28;20364;-71
2022/11/25 05:37:19;;;;;;;5.47;3.60;;;;;;;5.01;78.07;99252.94;5025804;28;20286;-71
2022/11/25 05:39:46;;;;;;;5.90;4.05;;;;;;;5.33;78.16;99312.25;5024690;28;20041;-71
2022/11/25 05:42:12;;;;;;;7.53;5.35;;;;;;;5.30;78.31;99305.34;5025696;28;20068;-72
2022/11/25 05:44:39;;;;;;;7.00;5.00;;;;;;;5.28;78.30;99312.41;5025963;28;20069;-71
2022/11/25 05:47:06;;;;;;;6.32;4.68;;;;;;;5.25;78.41;99306.41;5025644;28;20046;-71
2022/11/25 05:49:32;;;;;;;5.32;4.00;;;;;;;5.23;78.46;99311.72;5025592;28;20042;-71
2022/11/25 05:52:01;;;;;;;5.45;4.20;;;;;;;5.22;78.47;99317.88;5024328;28;20087;-71
2022/11/25 05:54:27;;;;;;;6.47;4.55;;;;;;;4.19;78.45;99143.63;5024533;28;20049;-71
2022/11/25 05:56:54;;;;;;;6.97;5.13;;;;;;;4.97;78.57;99280.22;5025402;28;20052;-71
2022/11/25 05:59:21;;;;;;;9.48;4.32;;;;;;;5.17;78.50;99324.22;5025892;28;20054;-71
2022/11/25 06:01:47;;;;;;;6.22;4.20;;;;;;;5.13;78.55;99313.81;5025239;28;20041;-72
2022/11/25 06:04:14;;;;;;;7.97;4.55;;;;;;;5.11;78.67;99307.75;5025262;28;20301;-72
2022/11/25 06:06:41;;;;;;;16.00;5.15;;;;;;;5.12;78.58;99319.97;5024493;28;20042;-71
2022/11/25 06:09:09;;;;;;;7.35;4.80;;;;;;;5.10;78.58;99323.56;5024463;28;20045;-71
2022/11/25 06:11:36;;;;;;;7.53;5.53;;;;;;;5.08;78.38;99320.97;5025180;28;20041;-71
2022/11/25 06:14:02;;;;;;;5.90;4.32;;;;;;;5.08;78.61;99317.50;5025243;28;20045;-71
2022/11/25 06:16:29;;;;;;;6.80;4.47;;;;;;;5.06;78.72;99319.31;5025729;28;20053;-71
2022/11/25 06:18:56;;;;;;;8.57;4.45;;;;;;;5.06;78.65;99319.31;5024946;28;20046;-71
2022/11/25 06:21:23;;;;;;;6.57;5.13;;;;;;;5.05;78.63;99314.97;5024680;28;20088;-71
2022/11/25 06:23:49;;;;;;;6.93;4.80;;;;;;;5.04;78.76;99321.13;5025786;28;20064;-71
2022/11/25 06:26:19;;;;;;;10.35;6.00;;;;;;;5.05;78.56;99320.22;5028618;28;20052;-71
2022/11/25 06:28:46;;;;;;;9.93;5.07;;;;;;;5.03;78.71;99312.38;5028673;28;20092;-71
2022/11/25 06:31:15;;;;;;;21.65;5.75;;;;;;;5.02;78.81;99328.19;5028815;28;20290;-71
2022/11/25 06:33:42;;;;;;;6.75;4.50;;;;;;;5.02;78.70;99318.56;5029145;28;20217;-71
2022/11/25 06:36:15;;;;;;;9.80;4.82;;;;;;;5.02;78.70;99334.31;5028063;28;20045;-72
2022/11/25 06:38:42;;;;;;;8.27;5.60;;;;;;;5.01;78.83;99324.72;5028792;28;20042;-71
2022/11/25 06:41:09;;;;;;;7.05;5.07;;;;;;;5.02;78.83;99330.81;5027553;28;20037;-71
2022/11/25 06:43:37;;;;;;;7.07;5.10;;;;;;;4.99;78.73;99328.31;5028689;28;20046;-71
2022/11/25 06:46:06;;;;;;;9.60;5.85;;;;;;;4.98;78.90;99331.84;5028382;28;20061;-71
2022/11/25 06:48:33;;;;;;;7.55;5.13;;;;;;;4.96;79.09;99325.78;5028363;28;20228;-71
2022/11/25 06:51:03;;;;;;;8.00;5.88;;;;;;;4.95;79.05;99331.94;5028364;28;20062;-71
2022/11/25 06:53:31;;;;;;;8.93;5.45;;;;;;;4.46;79.13;99273.09;5028261;28;20304;-71
2022/11/25 06:56:06;;;;;;;9.80;5.55;;;;;;;4.76;78.94;99303.63;5028495;28;20038;-72
2022/11/25 06:58:33;;;;;;;8.38;5.95;;;;;;;4.93;79.32;99331.13;5027275;28;20212;-72
2022/11/25 07:01:06;;;;;;;10.40;5.70;;;;;;;4.93;79.25;99336.38;5028244;28;20095;-70
2022/11/25 07:03:34;;;;;;;8.55;5.38;;;;;;;4.94;79.23;99340.72;5027122;28;20233;-71
2022/11/25 07:06:01;;;;;;;7.18;5.72;;;;;;;4.33;79.33;99245.53;5027789;28;20088;-71
2022/11/25 07:08:28;;;;;;;8.38;5.90;;;;;;;4.08;79.24;99211.31;5028024;28;20245;-71
2022/11/25 07:10:55;;;;;;;10.00;6.05;;;;;;;4.08;79.33;99227.03;5028006;28;20092;-71
2022/11/25 07:13:22;;;;;;;8.60;5.18;;;;;;;4.97;79.57;99348.50;5028203;28;20038;-71
2022/11/25 07:15:49;;;;;;;9.35;6.32;;;;;;;4.97;79.37;99351.13;5027799;28;20174;-71
2022/11/25 07:18:17;;;;;;;10.13;7.15;;;;;;;4.98;79.42;99345.84;5028037;28;20053;-71
2022/11/25 07:20:43;;;;;;;10.55;6.50;;;;;;;5.00;79.48;99349.28;5027790;28;20056;-71
2022/11/25 07:23:10;;;;;;;10.50;6.30;;;;;;;5.02;79.56;99350.06;5027755;28;20320;-71
2022/11/25 07:25:37;;;;;;;11.05;7.22;;;;;;;5.06;79.44;99348.22;5027439;28;20057;-71
2022/11/25 07:28:04;;;;;;;12.50;6.93;;;;;;;4.93;79.49;99326.75;5026662;28;20049;-71
2022/11/25 07:30:31;;;;;;;10.68;7.65;;;;;;;5.15;79.66;99353.16;5027541;28;20045;-71
2022/11/25 07:32:57;;;;;;;15.25;7.78;;;;;;;5.21;79.85;99350.31;5027340;28;20212;-71
2022/11/25 07:35:25;;;;;;;14.48;9.35;;;;;;;5.28;80.08;99353.59;5027220;28;20045;-71
2022/11/25 07:37:53;;;;;;;11.30;8.60;;;;;;;5.36;80.11;99351.56;5027361;28;20096;-71
2022/11/25 07:40:19;;;;;;;13.77;9.57;;;;;;;5.45;80.15;99352.13;5027783;28;20068;-71
2022/11/25 07:42:46;;;;;;;11.90;8.07;;;;;;;5.59;80.01;99356.03;5027671;28;20212;-71
2022/11/25 07:45:13;;;;;;;15.25;8.48;;;;;;;5.71;79.90;99356.47;5027552;28;20038;-71
2022/11/25 07:47:39;;;;;;;12.10;8.13;;;;;;;5.82;79.75;99358.72;5027207;28;20053;-71
2022/11/25 07:50:08;;;;;;;11.90;7.35;;;;;;;4.95;79.34;99184.88;5026786;28;20224;-72
2022/11/25 07:52:37;;;;;;;20.08;12.23;;;;;;;6.12;79.29;99354.13;5027024;28;20057;-71
2022/11/25 07:55:05;;;;;;;15.32;9.75;;;;;;;6.26;79.01;99356.22;5027392;28;20305;-70
2022/11/25 07:57:31;;;;;;;11.02;8.15;;;;;;;6.40;78.76;99356.56;5027405;28;20228;-72
2022/11/25 07:59:58;;;;;;;10.55;7.40;;;;;;;6.57;78.63;99361.19;5026246;28;20046;-71
2022/11/25 08:02:25;;;;;;;15.73;7.18;;;;;;;6.58;78.10;99342.69;5027434;28;20041;-72
2022/11/25 08:04:52;;;;;;;10.05;6.68;;;;;;;6.84;77.85;99368.03;5027071;28;20113;-71
2022/11/25 08:07:18;;;;;;;7.30;6.22;;;;;;;6.99;77.44;99369.19;5025953;28;20038;-72
2022/11/25 08:09:47;;;;;;;9.05;5.03;;;;;;;6.96;76.89;99340.34;5027242;28;20096;-71
2022/11/25 08:12:13;;;;;;;6.93;4.43;;;;;;;7.26;76.79;99367.22;5027264;28;20167;-71
2022/11/25 08:14:40;;;;;;;9.23;5.10;;;;;;;7.43;76.50;99361.25;5027067;28;20054;-71
2022/11/25 08:17:07;;;;;;;7.95;5.50;;;;;;;7.58;76.01;99361.47;5027298;28;20060;-71
2022/11/25 08:19:34;;;;;;;6.80;4.07;;;;;;;7.72;75.49;99360.03;5027243;28;20104;-71
2022/11/25 08:22:01;;;;;;;8.00;4.95;;;;;;;7.84;74.96;99362.13;5027137;28;20289;-71
2022/11/25 08:24:28;;;;;;;7.47;3.88;;;;;;;7.93;74.71;99365.22;5026801;28;20053;-72
2022/11/25 08:26:57;;;;;;;10.23;5.30;;;;;;;8.07;74.37;99361.09;5026428;28;20092;-72
2022/11/25 08:29:24;;;;;;;6.90;4.35;;;;;;;8.21;74.35;99369.25;5026688;28;20042;-71
2022/11/25 08:31:51;;;;;;;6.18;4.65;;;;;;;8.29;73.67;99370.63;5026803;28;20046;-71
2022/11/25 08:34:20;;;;;;;7.30;4.30;;;;;;;7.92;73.82;99308.09;5026254;28;20269;-72
2022/11/25 08:36:46;;;;;;;7.30;4.22;;;;;;;8.55;73.14;99372.06;5026098;28;20037;-72
2022/11/25 08:39:13;;;;;;;8.07;4.03;;;;;;;8.67;73.14;99374.13;5025601;28;20050;-72
2022/11/25 08:41:40;;;;;;;7.00;4.47;;;;;;;8.81;72.47;99367.34;5025174;28;20042;-72
2022/11/25 08:44:11;;;;;;;9.15;4.97;;;;;;;8.90;72.22;99380.13;5026603;28;20045;-72
2022/11/25 08:46:38;;;;;;;5.80;3.97;;;;;;;7.71;72.26;99161.31;5026121;28;20060;-72
2022/11/25 08:49:07;;;;;;;7.22;3.97;;;;;;;9.16;71.78;99369.13;5024305;28;20045;-72
2022/11/25 08:51:37;;;;;;;6.68;4.82;;;;;;;8.95;71.62;99322.59;5025760;28;20057;-72
2022/11/25 08:54:04;;;;;;;6.60;4.18;;;;;;;9.50;71.18;99370.16;5026072;28;20049;-71
2022/11/25 08:56:31;;;;;;;9.57;4.53;;;;;;;9.66;70.72;99379.03;5026308;28;20038;-72
2022/11/25 08:58:58;;;;;;;7.55;3.95;;;;;;;9.84;70.28;99369.28;5026036;28;20105;-72
2022/11/25 09:01:27;;;;;;;8.55;5.05;;;;;;;9.84;69.40;99362.22;5026113;28;20042;-72
2022/11/25 09:03:56;;;;;;;7.25;4.30;;;;;;;9.87;69.15;99370.00;5025383;28;20088;-71
2022/11/25 09:06:24;;;;;;;8.77;3.75;;;;;;;9.93;69.25;99337.03;5025107;28;20038;-72
2022/11/25 09:08:51;;;;;;;7.07;4.25;;;;;;;10.19;68.69;99381.53;5026111;28;20104;-72
2022/11/25 09:11:17;;;;;;;6.40;4.13;;;;;;;10.28;68.42;99383.69;5026068;28;20244;-72
2022/11/25 09:13:44;;;;;;;8.80;4.68;;;;;;;10.40;68.16;99376.03;5025654;28;20052;-72
2022/11/25 09:16:11;;;;;;;8.10;4.75;;;;;;;10.49;67.80;99384.31;5025874;28;20055;-72
2022/11/25 09:18:39;;;;;;;10.93;4.32;;;;;;;10.57;67.54;99382.13;5025730;28;20046;-72
2022/11/25 09:21:10;;;;;;;9.93;5.07;;;;;;;10.63;66.69;99382.72;5025778;28;20339;-72
2022/11/25 09:23:37;;;;;;;7.10;3.60;;;;;;;10.75;67.14;99390.00;5025526;28;20034;-72
2022/11/25 09:26:05;;;;;;;6.30;3.95;;;;;;;10.53;66.53;99329.38;5025908;28;20041;-72
2022/11/25 09:28:32;;;;;;;5.53;4.43;;;;;;;10.93;66.13;99382.84;5026029;28;20042;-72
2022/11/25 09:30:59;;;;;;;6.72;4.50;;;;;;;11.02;65.99;99377.03;5025982;28;20105;-72
2022/11/25 09:33:26;;;;;;;9.00;4.97;;;;;;;11.18;65.70;99375.22;5025944;28;20064;-72
2022/11/25 09:35:54;;;;;;;6.32;3.70;;;;;;;11.33;65.13;99376.13;5025854;28;20104;-72
2022/11/25 09:38:21;;;;;;;8.95;4.03;;;;;;;11.43;64.86;99375.50;5025592;28;20076;-72
2022/11/25 09:40:54;;;;;;;6.85;3.55;;;;;;;11.62;64.32;99371.78;5025595;28;20320;-72
2022/11/25 09:46:41;;;;;;;10.35;4.03;;;;;;;11.78;60.62;99364.59;5025670;28;20052;-72
2022/11/25 09:49:27;;;;;;;6.95;3.60;;;;;;;11.38;60.76;99289.16;5025464;28;20046;-72
2022/11/25 09:52:03;;;;;;;5.32;3.10;;;;;;;11.99;61.83;99371.28;5025257;28;20321;-72
2022/11/25 09:54:36;;;;;;;8.60;4.07;;;;;;;12.13;60.05;99357.19;5025771;28;20076;-71
2022/11/25 09:57:17;;;;;;;8.27;3.70;;;;;;;11.86;59.44;99307.44;5024459;28;20050;-72
2022/11/25 09:59:53;;;;;;;8.73;4.05;;;;;;;12.47;60.66;99361.28;5027463;28;20042;-72
2022/11/25 10:02:27;;;;;;;9.88;3.53;;;;;;;12.44;58.51;99345.53;5029494;28;20045;-72
2022/11/25 10:05:01;;;;;;;6.10;3.47;;;;;;;12.67;59.18;99365.34;5028393;28;20042;-72
2022/11/25 10:07:36;;;;;;;6.75;3.92;;;;;;;12.78;56.84;99360.19;5029550;28;20053;-72
2022/11/25 10:10:05;;;;;;;4.82;2.85;;;;;;;12.70;59.97;99339.41;5029182;28;20046;-72
2022/11/25 10:12:38;;;;;;;9.82;4.20;;;;;;;12.99;59.05;99355.31;5030875;28;20048;-73
2022/11/25 10:15:13;;;;;;;5.55;3.00;;;;;;;13.11;58.16;99357.16;5029258;28;20038;-71
2022/11/25 10:17:45;;;;;;;7.45;2.95;;;;;;;12.83;57.31;99312.88;5027956;28;20069;-71
2022/11/25 10:20:18;;;;;;;8.45;3.40;;;;;;;13.18;56.33;99353.16;5028882;28;20037;-71
2022/11/25 10:22:48;;;;;;;5.32;2.58;;;;;;;13.26;57.29;99349.97;5028802;28;20058;-71
2022/11/25 10:25:19;;;;;;;5.55;2.78;;;;;;;12.65;58.34;99205.91;5028890;28;20244;-70
2022/11/25 10:27:50;;;;;;;7.63;3.22;;;;;;;13.60;57.82;99340.63;5028762;28;20105;-71
2022/11/25 10:30:20;;;;;;;5.18;2.83;;;;;;;13.22;56.79;99255.31;5027558;28;20166;-70
2022/11/25 10:32:51;;;;;;;9.00;2.80;;;;;;;13.75;56.74;99337.75;5028584;28;20042;-70
2022/11/25 10:35:27;;;;;;;4.63;2.75;;;;;;;13.85;56.02;99335.31;5028742;28;20042;-71
2022/11/25 10:37:58;;;;;;;7.93;2.60;;;;;;;13.65;55.71;99269.25;5028354;28;20080;-71
2022/11/25 10:40:25;;;;;;;5.25;2.35;;;;;;;14.09;56.34;99325.63;5028417;28;20096;-71
2022/11/25 10:42:52;;;;;;;6.63;3.08;;;;;;;14.22;56.10;99341.59;5028399;28;20041;-71
2022/11/25 10:45:22;;;;;;;7.95;3.30;;;;;;;14.23;55.16;99331.81;5027715;28;20213;-71
2022/11/25 10:48:04;;;;;;;8.60;3.78;;;;;;;14.34;52.30;99330.06;5028375;28;20252;-71
2022/11/25 10:50:39;;;;;;;5.03;2.45;;;;;;;14.36;53.10;99325.50;5028528;28;20050;-71
2022/11/25 10:53:14;;;;;;;8.43;4.13;;;;;;;13.80;51.60;99225.56;5027437;28;20034;-70
2022/11/25 10:55:58;;;;;;;7.47;3.65;;;;;;;13.99;50.33;99273.94;5027661;28;20049;-71
2022/11/25 10:58:31;;;;;;;10.45;5.38;;;;;;;13.91;52.84;99284.28;5028070;28;20069;-71
2022/11/25 11:01:04;;;;;;;7.35;3.20;;;;;;;14.17;52.07;99326.91;5027212;28;20059;-71
2022/11/25 11:03:31;;;;;;;8.48;3.42;;;;;;;14.14;55.05;99322.63;5028273;28;20214;-71
2022/11/25 11:05:57;;;;;;;7.07;4.22;;;;;;;14.19;54.84;99322.31;5028137;28;20197;-71
2022/11/25 11:08:28;;;;;;;6.60;3.20;;;;;;;14.10;53.31;99290.03;5027770;28;20319;-72
2022/11/25 11:11:18;;;;;;;6.03;3.67;;;;;;;14.42;49.71;99308.19;5026680;28;20042;-71
2022/11/25 11:13:46;;;;;;;9.45;4.35;;;;;;;14.62;54.53;99304.16;5025429;28;20050;-71
2022/11/25 11:16:29;;;;;;;8.07;4.45;;;;;;;14.78;50.31;99299.41;5026894;28;20179;-71
2022/11/25 11:18:57;;;;;;;6.28;3.95;;;;;;;14.74;53.25;99301.44;5026667;28;20056;-71
2022/11/25 11:21:29;;;;;;;8.95;4.30;;;;;;;14.71;53.78;99290.16;5027777;28;20045;-71
2022/11/25 11:23:59;;;;;;;7.18;4.57;;;;;;;13.98;53.46;99202.97;5026231;28;20216;-71
2022/11/25 11:26:29;;;;;;;9.32;5.05;;;;;;;14.20;54.59;99244.91;5028049;28;20281;-71
2022/11/25 11:29:05;;;;;;;10.68;6.30;;;;;;;14.45;51.33;99294.66;5027700;28;20167;-71
2022/11/25 11:31:37;;;;;;;8.57;5.75;;;;;;;14.31;54.93;99286.78;5027564;28;20061;-70
2022/11/25 11:34:31;;;;;;;10.10;5.80;;;;;;;14.30;50.89;99293.94;5027635;28;20057;-71
2022/11/25 11:37:16;;;;;;;12.63;6.53;;;;;;;14.20;52.27;99297.38;5027316;28;20053;-71
2022/11/25 11:40:02;;;;;;;8.77;5.93;;;;;;;14.15;51.11;99294.16;5027413;28;20048;-71
2022/11/25 11:42:38;;;;;;;7.28;5.10;;;;;;;13.64;52.75;99231.13;5027640;28;20088;-71
2022/11/25 11:45:24;;;;;;;6.70;3.50;;;;;;;13.97;52.15;99298.97;5027571;28;20092;-71
2022/11/25 11:48:04;;;;;;;9.40;5.07;;;;;;;13.70;52.00;99269.78;5027157;28;20167;-71
2022/11/25 11:50:33;;;;;;;8.20;4.40;;;;;;;13.75;55.30;99297.81;5026591;28;20041;-71
2022/11/25 11:53:09;;;;;;;5.65;3.88;;;;;;;13.63;53.34;99311.97;5027195;28;20057;-71